createdAt,value
2022-09-30T00:01:37.516Z,7.10
2022-09-30T00:04:04.492Z,7.10
2022-09-30T00:06:35.025Z,7.10
2022-09-30T00:09:03.391Z,7.00
2022-09-30T00:11:34.533Z,7.00
2022-09-30T00:14:02.788Z,7.00
2022-09-30T00:16:34.653Z,7.00
2022-09-30T00:19:01.961Z,6.90
2022-09-30T00:21:29.110Z,6.90
2022-09-30T00:23:56.834Z,6.90
2022-09-30T00:26:24.610Z,6.90
2022-09-30T00:28:58.842Z,6.90
2022-09-30T00:31:30.390Z,6.80
2022-09-30T00:34:11.502Z,6.80
2022-09-30T00:36:51.100Z,6.80
2022-09-30T00:39:27.761Z,6.70
2022-09-30T00:42:00.959Z,6.70
2022-09-30T00:44:57.225Z,6.70
2022-09-30T00:47:46.083Z,6.70
2022-09-30T00:50:21.335Z,6.70
2022-09-30T00:53:11.093Z,6.80
2022-09-30T00:55:46.703Z,6.70
2022-09-30T00:58:22.883Z,6.70
2022-09-30T01:00:51.759Z,6.80
2022-09-30T01:03:22.583Z,6.70
2022-09-30T01:05:51.426Z,6.70
2022-09-30T01:08:20.930Z,6.80
2022-09-30T01:10:47.711Z,6.70
2022-09-30T01:13:17.873Z,6.70
2022-09-30T01:16:12.160Z,6.70
2022-09-30T01:18:57.248Z,6.70
2022-09-30T01:21:59.424Z,6.70
2022-09-30T01:25:05.377Z,6.60
2022-09-30T01:27:58.580Z,6.50
2022-09-30T01:31:22.375Z,6.60
2022-09-30T01:34:28.262Z,6.60
2022-09-30T01:37:14.033Z,6.60
2022-09-30T01:40:05.381Z,6.60
2022-09-30T01:43:11.637Z,6.60
2022-09-30T01:45:50.923Z,6.60
2022-09-30T01:48:35.885Z,6.70
2022-09-30T01:51:35.028Z,6.60
2022-09-30T01:54:43.376Z,6.70
2022-09-30T01:57:28.584Z,6.80
2022-09-30T02:00:05.264Z,6.80
2022-09-30T02:03:28.854Z,6.80
2022-09-30T02:06:07.444Z,6.70
2022-09-30T02:09:01.389Z,6.90
2022-09-30T02:11:36.387Z,6.90
2022-09-30T02:14:39.772Z,6.80
2022-09-30T02:17:23.353Z,6.90
2022-09-30T02:20:03.133Z,7.00
2022-09-30T02:22:43.148Z,7.10
2022-09-30T02:25:20.249Z,7.10
2022-09-30T02:27:56.475Z,7.00
2022-09-30T02:30:23.491Z,7.10
2022-09-30T02:33:13.027Z,7.10
2022-09-30T02:35:57.653Z,7.20
2022-09-30T02:38:35.119Z,7.20
2022-09-30T02:41:10.484Z,7.20
2022-09-30T02:43:42.679Z,7.10
2022-09-30T02:46:44.974Z,7.10
2022-09-30T02:49:27.800Z,7.10
2022-09-30T02:52:20.125Z,7.00
2022-09-30T02:55:14.088Z,7.00
2022-09-30T02:58:04.651Z,7.00
2022-09-30T03:00:32.030Z,7.00
2022-09-30T03:03:09.240Z,6.90
2022-09-30T03:05:36.093Z,6.80
2022-09-30T03:08:02.959Z,6.80
2022-09-30T03:10:31.111Z,6.70
2022-09-30T03:13:18.662Z,6.60
2022-09-30T03:16:39.493Z,6.60
2022-09-30T03:19:43.777Z,6.70
2022-09-30T03:22:51.200Z,6.60
2022-09-30T03:25:59.396Z,6.60
2022-09-30T03:28:48.159Z,6.60
2022-09-30T03:31:24.339Z,6.60
2022-09-30T03:34:05.958Z,6.50
2022-09-30T03:36:48.201Z,6.50
2022-09-30T03:39:37.267Z,6.50
2022-09-30T03:42:29.364Z,6.40
2022-09-30T03:45:26.468Z,6.40
2022-09-30T03:47:58.924Z,6.40
2022-09-30T03:50:29.136Z,6.40
2022-09-30T03:52:56.082Z,6.30
2022-09-30T03:55:24.299Z,6.20
2022-09-30T03:57:52.050Z,6.20
2022-09-30T04:00:19.012Z,6.20
2022-09-30T04:02:45.816Z,6.30
2022-09-30T04:05:12.786Z,6.20
2022-09-30T04:07:39.517Z,6.20
2022-09-30T04:10:06.956Z,6.10
2022-09-30T04:12:33.739Z,6.10
2022-09-30T04:15:00.584Z,6.10
2022-09-30T04:17:27.419Z,6.10
2022-09-30T04:19:54.215Z,6.10
2022-09-30T04:22:25.543Z,6.00
2022-09-30T04:24:53.149Z,6.10
2022-09-30T04:27:19.930Z,6.10
2022-09-30T04:29:46.656Z,6.00
2022-09-30T04:32:13.368Z,5.90
2022-09-30T04:34:40.163Z,5.90
2022-09-30T04:37:10.783Z,5.90
2022-09-30T04:39:37.910Z,5.80
2022-09-30T04:42:04.633Z,5.80
2022-09-30T04:44:31.503Z,5.80
2022-09-30T04:46:58.327Z,5.80
2022-09-30T04:49:25.109Z,5.80
2022-09-30T04:51:51.923Z,5.80
2022-09-30T04:54:19.232Z,5.90
2022-09-30T04:56:46.022Z,5.80
2022-09-30T04:59:12.857Z,5.80
2022-09-30T05:01:41.702Z,5.70
2022-09-30T05:04:08.464Z,5.70
2022-09-30T05:06:36.195Z,5.70
2022-09-30T05:09:03.000Z,5.70
2022-09-30T05:11:29.855Z,5.70
2022-09-30T05:13:56.726Z,5.70
2022-09-30T05:16:23.694Z,5.70
2022-09-30T05:18:51.234Z,5.60
2022-09-30T05:21:20.747Z,5.60
2022-09-30T05:23:48.715Z,5.70
2022-09-30T05:26:15.929Z,5.70
2022-09-30T05:28:43.289Z,5.70
2022-09-30T05:31:12.245Z,5.70
2022-09-30T05:33:40.379Z,5.80
2022-09-30T05:36:09.591Z,5.80
2022-09-30T05:38:36.544Z,5.70
2022-09-30T05:41:13.098Z,5.80
2022-09-30T05:43:43.744Z,5.80
2022-09-30T05:46:10.583Z,5.70
2022-09-30T05:48:37.322Z,5.70
2022-09-30T05:51:04.224Z,5.80
2022-09-30T05:53:32.360Z,5.80
2022-09-30T05:55:59.672Z,5.70
2022-09-30T05:58:27.421Z,5.70
2022-09-30T06:00:54.208Z,5.70
2022-09-30T06:03:20.997Z,5.70
2022-09-30T06:05:48.114Z,5.80
2022-09-30T06:08:15.876Z,5.70
2022-09-30T06:10:44.597Z,5.70
2022-09-30T06:13:11.675Z,5.70
2022-09-30T06:15:39.548Z,5.80
2022-09-30T06:18:07.278Z,5.80
2022-09-30T06:20:34.528Z,5.90
2022-09-30T06:23:02.160Z,6.00
2022-09-30T06:25:31.132Z,6.00
2022-09-30T06:27:58.692Z,6.10
2022-09-30T06:30:25.833Z,6.40
2022-09-30T06:32:55.955Z,6.50
2022-09-30T06:35:24.735Z,6.60
2022-09-30T06:37:52.357Z,6.80
2022-09-30T06:40:23.403Z,6.80
2022-09-30T06:42:50.361Z,6.80
2022-09-30T06:45:32.669Z,6.90
2022-09-30T06:48:01.831Z,7.00
2022-09-30T06:50:30.914Z,7.10
2022-09-30T06:53:03.510Z,7.30
2022-09-30T06:55:30.768Z,7.40
2022-09-30T06:57:58.021Z,7.60
2022-09-30T07:00:28.585Z,7.80
2022-09-30T07:02:56.993Z,8.00
2022-09-30T07:05:25.619Z,8.10
2022-09-30T07:07:54.060Z,8.20
2022-09-30T07:10:20.984Z,8.30
2022-09-30T07:12:54.148Z,8.30
2022-09-30T07:15:22.863Z,8.40
2022-09-30T07:17:54.823Z,8.40
2022-09-30T07:20:21.600Z,8.60
2022-09-30T07:22:48.471Z,8.60
2022-09-30T07:25:15.847Z,8.60
2022-09-30T07:27:42.882Z,8.70
2022-09-30T07:30:19.275Z,8.70
2022-09-30T07:32:51.431Z,8.90
2022-09-30T07:35:19.200Z,8.90
2022-09-30T07:37:45.985Z,9.00
2022-09-30T07:40:12.875Z,9.20
2022-09-30T07:42:45.265Z,9.30
2022-09-30T07:45:15.821Z,9.40
2022-09-30T07:47:42.599Z,9.50
2022-09-30T07:50:10.696Z,9.60
2022-09-30T07:52:37.524Z,9.70
2022-09-30T07:55:04.648Z,9.70
2022-09-30T07:57:31.413Z,9.80
2022-09-30T07:59:58.440Z,9.90
2022-09-30T08:02:25.307Z,10.00
2022-09-30T08:04:52.078Z,10.10
2022-09-30T08:07:19.497Z,10.20
2022-09-30T08:09:46.548Z,10.30
2022-09-30T08:12:13.450Z,10.50
2022-09-30T08:14:40.379Z,10.60
2022-09-30T08:17:07.225Z,10.70
2022-09-30T08:19:34.115Z,10.80
2022-09-30T08:24:33.250Z,10.90
2022-09-30T08:27:00.100Z,11.00
2022-09-30T08:29:53.286Z,11.10
2022-09-30T08:32:14.060Z,11.20
2022-09-30T08:34:40.864Z,11.30
2022-09-30T08:37:10.374Z,11.50
2022-09-30T08:39:38.850Z,11.70
2022-09-30T08:42:52.993Z,11.80
2022-09-30T08:45:52.431Z,11.90
2022-09-30T08:49:10.176Z,12.00
2022-09-30T08:51:45.287Z,12.20
2022-09-30T08:54:19.071Z,12.30
2022-09-30T08:56:46.376Z,12.40
2022-09-30T08:59:58.572Z,12.50
2022-09-30T09:02:51.587Z,12.60
2022-09-30T09:05:57.503Z,12.70
2022-09-30T09:08:54.092Z,12.80
2022-09-30T09:12:03.013Z,13.00
2022-09-30T09:15:11.255Z,13.10
2022-09-30T09:18:21.424Z,13.20
2022-09-30T09:21:31.223Z,13.30
2022-09-30T09:24:02.791Z,13.50
2022-09-30T09:26:37.120Z,13.60
2022-09-30T09:29:25.820Z,13.90
2022-09-30T09:31:54.995Z,14.10
2022-09-30T09:34:25.576Z,14.20
2022-09-30T09:37:06.264Z,14.40
2022-09-30T09:40:00.364Z,14.60
2022-09-30T09:42:45.896Z,14.90
2022-09-30T09:45:29.071Z,15.00
2022-09-30T09:47:57.862Z,15.00
2022-09-30T09:50:51.496Z,15.10
2022-09-30T09:53:47.459Z,15.20
2022-09-30T09:56:23.154Z,15.10
2022-09-30T09:59:20.070Z,15.10
2022-09-30T10:01:54.004Z,15.30
2022-09-30T10:04:30.370Z,15.40
2022-09-30T10:07:00.971Z,15.20
2022-09-30T10:09:38.007Z,15.30
2022-09-30T10:12:07.427Z,15.50
2022-09-30T10:14:47.851Z,15.50
2022-09-30T10:17:33.782Z,15.30
2022-09-30T10:20:15.773Z,15.20
2022-09-30T10:22:43.422Z,15.10
2022-09-30T10:25:17.426Z,15.30
2022-09-30T10:28:22.086Z,15.20
2022-09-30T10:31:00.592Z,15.40
2022-09-30T10:33:41.854Z,15.40
2022-09-30T10:36:21.900Z,15.30
2022-09-30T10:39:06.982Z,15.10
2022-09-30T10:41:37.876Z,15.30
2022-09-30T10:44:15.800Z,15.20
2022-09-30T10:46:45.601Z,15.20
2022-09-30T10:49:48.667Z,15.30
2022-09-30T10:52:27.580Z,15.40
2022-09-30T10:54:55.414Z,15.30
2022-09-30T10:57:42.433Z,15.50
2022-09-30T11:00:22.496Z,15.50
2022-09-30T11:03:16.702Z,15.50
2022-09-30T11:05:49.957Z,15.70
2022-09-30T11:08:53.599Z,15.60
2022-09-30T11:11:55.167Z,15.60
2022-09-30T11:14:51.092Z,15.70
2022-09-30T11:17:37.248Z,15.70
2022-09-30T11:20:23.419Z,15.60
2022-09-30T11:23:26.399Z,15.80
2022-09-30T11:26:09.026Z,15.60
2022-09-30T11:29:23.133Z,15.80
2022-09-30T11:32:09.105Z,16.10
2022-09-30T11:35:02.215Z,16.20
2022-09-30T11:37:45.255Z,16.40
2022-09-30T11:40:35.527Z,16.20
2022-09-30T11:43:05.315Z,16.10
2022-09-30T11:46:20.411Z,16.30
2022-09-30T11:49:27.033Z,16.30
2022-09-30T11:52:26.584Z,16.10
2022-09-30T11:55:51.515Z,16.00
2022-09-30T11:58:41.052Z,15.80
2022-09-30T12:01:25.349Z,15.70
2022-09-30T12:04:00.957Z,15.70
2022-09-30T12:06:36.195Z,16.00
2022-09-30T12:09:22.186Z,16.20
2022-09-30T12:12:12.430Z,16.50
2022-09-30T12:15:02.090Z,16.60
2022-09-30T12:18:03.963Z,16.80
2022-09-30T12:20:47.672Z,16.50
2022-09-30T12:23:39.459Z,16.70
2022-09-30T12:26:06.725Z,16.70
2022-09-30T12:29:15.242Z,16.60
2022-09-30T12:32:29.148Z,16.40
2022-09-30T12:35:03.023Z,16.60
2022-09-30T12:38:06.289Z,16.60
2022-09-30T12:41:07.533Z,16.50
2022-09-30T12:44:30.872Z,16.40
2022-09-30T12:47:21.803Z,16.30
2022-09-30T12:49:51.092Z,16.00
2022-09-30T12:52:22.072Z,15.90
2022-09-30T12:54:55.939Z,15.80
2022-09-30T12:57:36.943Z,16.00
2022-09-30T13:00:20.506Z,16.10
2022-09-30T13:03:02.374Z,16.20
2022-09-30T13:05:32.169Z,16.40
2022-09-30T13:08:05.023Z,16.50
2022-09-30T13:10:32.681Z,16.60
2022-09-30T13:13:29.118Z,16.50
2022-09-30T13:16:03.113Z,16.50
2022-09-30T13:18:29.884Z,16.50
2022-09-30T13:21:18.609Z,16.50
2022-09-30T13:23:57.168Z,16.50
2022-09-30T13:26:33.318Z,16.60
2022-09-30T13:29:00.344Z,16.60
2022-09-30T13:31:32.760Z,16.60
2022-09-30T13:34:02.363Z,16.60
2022-09-30T13:36:51.708Z,16.60
2022-09-30T13:39:27.247Z,16.50
2022-09-30T13:42:05.082Z,16.60
2022-09-30T13:44:45.696Z,16.60
2022-09-30T13:47:25.121Z,16.70
2022-09-30T13:50:16.221Z,16.40
2022-09-30T13:52:51.126Z,16.40
2022-09-30T13:55:26.917Z,16.50
2022-09-30T13:58:23.408Z,16.70
2022-09-30T14:01:38.776Z,16.60
2022-09-30T14:04:37.308Z,16.50
2022-09-30T14:07:26.988Z,16.50
2022-09-30T14:10:23.955Z,16.40
2022-09-30T14:13:06.054Z,16.20
2022-09-30T14:16:14.378Z,16.20
2022-09-30T14:19:09.664Z,16.20
2022-09-30T14:21:48.563Z,16.20
2022-09-30T14:24:25.455Z,16.20
2022-09-30T14:27:45.419Z,16.20
2022-09-30T14:30:21.367Z,16.30
2022-09-30T14:32:52.984Z,16.20
2022-09-30T14:35:35.583Z,16.20
2022-09-30T14:38:25.052Z,16.20
2022-09-30T14:40:56.245Z,16.20
2022-09-30T14:43:38.868Z,16.10
2022-09-30T14:46:38.715Z,16.10
2022-09-30T14:49:16.903Z,16.20
2022-09-30T14:51:48.340Z,16.30
2022-09-30T14:54:26.467Z,16.30
2022-09-30T14:56:56.129Z,16.40
2022-09-30T14:59:33.064Z,16.40
2022-09-30T15:02:15.321Z,16.40
2022-09-30T15:04:52.440Z,16.30
2022-09-30T15:07:19.911Z,16.40
2022-09-30T15:09:50.091Z,16.40
2022-09-30T15:12:20.031Z,16.40
2022-09-30T15:14:58.018Z,16.40
2022-09-30T15:17:38.523Z,16.40
2022-09-30T15:20:34.749Z,16.40
2022-09-30T15:23:15.027Z,16.30
2022-09-30T15:25:42.301Z,16.20
2022-09-30T15:28:12.689Z,16.20
2022-09-30T15:30:43.052Z,16.20
2022-09-30T15:33:20.117Z,16.30
2022-09-30T15:35:47.055Z,16.30
2022-09-30T15:38:23.328Z,16.30
2022-09-30T15:41:11.352Z,16.20
2022-09-30T15:43:44.037Z,16.10
2022-09-30T15:46:34.915Z,16.00
2022-09-30T15:49:07.154Z,16.00
2022-09-30T15:51:43.340Z,16.00
2022-09-30T15:54:37.873Z,16.10
2022-09-30T15:57:51.469Z,16.10
2022-09-30T16:00:35.354Z,16.00
2022-09-30T16:03:19.238Z,16.00
2022-09-30T16:05:50.637Z,16.00
2022-09-30T16:08:28.784Z,16.00
2022-09-30T16:10:58.676Z,15.90
2022-09-30T16:13:30.223Z,16.00
2022-09-30T16:15:58.528Z,15.90
2022-09-30T16:18:34.011Z,15.80
2022-09-30T16:21:05.439Z,15.80
2022-09-30T16:23:38.043Z,15.80
2022-09-30T16:26:28.362Z,15.80
2022-09-30T16:28:56.079Z,15.70
2022-09-30T16:31:24.145Z,15.80
2022-09-30T16:33:50.982Z,15.60
2022-09-30T16:36:17.809Z,15.60
2022-09-30T16:38:44.545Z,15.60
2022-09-30T16:41:13.299Z,15.60
2022-09-30T16:43:40.604Z,15.50
2022-09-30T16:46:09.288Z,15.50
2022-09-30T16:48:36.191Z,15.40
2022-09-30T16:51:16.805Z,15.40
2022-09-30T16:53:44.001Z,15.40
2022-09-30T16:56:16.844Z,15.40
2022-09-30T16:58:44.139Z,15.30
2022-09-30T17:01:19.932Z,15.30
2022-09-30T17:03:47.274Z,15.20
2022-09-30T17:06:17.082Z,15.20
2022-09-30T17:08:45.271Z,15.20
2022-09-30T17:11:12.168Z,15.10
2022-09-30T17:13:38.948Z,15.00
2022-09-30T17:16:06.120Z,15.00
2022-09-30T17:18:32.988Z,14.90
2022-09-30T17:21:01.179Z,14.90
2022-09-30T17:23:27.960Z,14.90
2022-09-30T17:25:54.875Z,14.90
2022-09-30T17:28:22.099Z,14.90
2022-09-30T17:30:50.259Z,14.90
2022-09-30T17:33:20.761Z,14.90
2022-09-30T17:35:59.432Z,14.80
2022-09-30T17:38:27.051Z,14.80
2022-09-30T17:41:12.456Z,14.80
2022-09-30T17:43:39.482Z,14.80
2022-09-30T17:46:06.545Z,14.70
2022-09-30T17:48:33.393Z,14.70
2022-09-30T17:51:00.402Z,14.60
2022-09-30T17:53:30.739Z,14.60
2022-09-30T17:56:12.265Z,14.60
2022-09-30T17:58:39.977Z,14.50
2022-09-30T18:01:08.473Z,14.50
2022-09-30T18:03:36.629Z,14.50
2022-09-30T18:06:04.150Z,14.40
2022-09-30T18:08:30.916Z,14.40
2022-09-30T18:10:57.914Z,14.40
2022-09-30T18:13:26.627Z,14.40
2022-09-30T18:15:54.747Z,14.30
2022-09-30T18:18:21.868Z,14.30
2022-09-30T18:20:50.187Z,14.30
2022-09-30T18:23:21.355Z,14.20
2022-09-30T18:25:49.464Z,14.30
2022-09-30T18:28:17.158Z,14.20
2022-09-30T18:30:43.966Z,14.20
2022-09-30T18:33:10.936Z,14.20
2022-09-30T18:35:39.620Z,14.20
2022-09-30T18:38:06.832Z,14.20
2022-09-30T18:40:34.102Z,14.10
2022-09-30T18:43:05.228Z,14.10
2022-09-30T18:45:36.536Z,14.10
2022-09-30T18:48:04.595Z,14.10
2022-09-30T18:50:32.600Z,14.20
2022-09-30T18:53:03.656Z,14.10
2022-09-30T18:55:33.905Z,14.10
2022-09-30T18:58:00.784Z,14.10
2022-09-30T19:00:30.031Z,14.10
2022-09-30T19:02:57.782Z,14.20
2022-09-30T19:05:24.577Z,14.10
2022-09-30T19:07:53.910Z,14.20
2022-09-30T19:10:24.195Z,14.20
2022-09-30T19:12:52.078Z,14.20
2022-09-30T19:15:19.399Z,14.20
2022-09-30T19:17:46.682Z,14.20
2022-09-30T19:20:17.694Z,14.20
2022-09-30T19:22:45.443Z,14.20
2022-09-30T19:25:12.224Z,14.20
2022-09-30T19:27:41.839Z,14.20
2022-09-30T19:30:11.694Z,14.20
2022-09-30T19:32:39.323Z,14.20
2022-09-30T19:35:14.125Z,14.20
2022-09-30T19:37:52.729Z,14.20
2022-09-30T19:40:26.901Z,14.20
2022-09-30T19:42:53.660Z,14.20
2022-09-30T19:45:25.732Z,14.20
2022-09-30T19:47:53.950Z,14.20
2022-09-30T19:50:20.719Z,14.20
2022-09-30T19:52:56.215Z,14.20
2022-09-30T19:55:25.669Z,14.20
2022-09-30T19:57:52.812Z,14.20
2022-09-30T20:00:19.737Z,14.20
2022-09-30T20:02:46.440Z,14.20
2022-09-30T20:05:13.178Z,14.20
2022-09-30T20:07:40.011Z,14.20
2022-09-30T20:10:07.718Z,14.30
2022-09-30T20:12:34.543Z,14.20
2022-09-30T20:15:19.744Z,14.20
2022-09-30T20:17:46.483Z,14.30
2022-09-30T20:20:33.493Z,14.30
2022-09-30T20:23:01.015Z,14.30
2022-09-30T20:25:29.849Z,14.30
2022-09-30T20:27:56.674Z,14.30
2022-09-30T20:30:23.612Z,14.30
2022-09-30T20:32:50.339Z,14.30
2022-09-30T20:35:17.255Z,14.30
2022-09-30T20:37:44.095Z,14.30
2022-09-30T20:40:10.907Z,14.30
2022-09-30T20:42:38.196Z,14.30
2022-09-30T20:45:10.033Z,14.30
2022-09-30T20:47:43.084Z,14.30
2022-09-30T20:50:10.788Z,14.30
2022-09-30T20:52:37.619Z,14.30
2022-09-30T20:55:05.891Z,14.30
2022-09-30T20:57:32.615Z,14.30
2022-09-30T21:00:00.015Z,14.30
2022-09-30T21:02:28.503Z,14.30
2022-09-30T21:04:59.428Z,14.30
2022-09-30T21:07:26.937Z,14.30
2022-09-30T21:09:54.020Z,14.30
2022-09-30T21:12:20.874Z,14.30
2022-09-30T21:14:47.976Z,14.30
2022-09-30T21:17:15.014Z,14.30
2022-09-30T21:19:41.736Z,14.30
2022-09-30T21:22:08.583Z,14.20
2022-09-30T21:24:35.360Z,14.20
2022-09-30T21:27:05.617Z,14.10
2022-09-30T21:29:32.723Z,14.00
2022-09-30T21:31:59.529Z,13.80
2022-09-30T21:34:26.743Z,13.70
2022-09-30T21:36:53.578Z,13.70
2022-09-30T21:39:20.295Z,13.60
2022-09-30T21:41:47.572Z,13.60
2022-09-30T21:44:15.283Z,13.50
2022-09-30T21:46:46.059Z,13.50
2022-09-30T21:49:22.943Z,13.40
2022-09-30T21:51:52.785Z,13.40
2022-09-30T21:54:20.216Z,13.30
2022-09-30T21:56:48.448Z,13.30
2022-09-30T21:59:15.840Z,13.30
2022-09-30T22:01:42.685Z,13.30
2022-09-30T22:04:10.075Z,13.30
2022-09-30T22:06:36.817Z,13.20
2022-09-30T22:09:05.102Z,13.20
2022-09-30T22:11:32.322Z,13.10
2022-09-30T22:14:00.510Z,13.10
2022-09-30T22:16:31.964Z,13.10
2022-09-30T22:19:02.474Z,13.00
2022-09-30T22:21:33.097Z,13.00
2022-09-30T22:24:02.035Z,13.00
2022-09-30T22:26:30.281Z,12.90
2022-09-30T22:29:04.080Z,12.90
2022-09-30T22:31:32.916Z,12.90
2022-09-30T22:34:22.255Z,12.80
2022-09-30T22:37:08.048Z,12.80
2022-09-30T22:39:35.321Z,12.80
2022-09-30T22:42:02.395Z,12.70
2022-09-30T22:44:34.143Z,12.70
2022-09-30T22:47:01.559Z,12.70
2022-09-30T22:49:33.496Z,12.70
2022-09-30T22:52:01.877Z,12.70
2022-09-30T22:54:29.643Z,12.70
2022-09-30T22:56:59.170Z,12.60
2022-09-30T22:59:27.048Z,12.60
2022-09-30T23:01:55.344Z,12.60
2022-09-30T23:04:22.785Z,12.60
2022-09-30T23:06:52.350Z,12.50
2022-09-30T23:09:20.747Z,12.50
2022-09-30T23:11:51.496Z,12.50
2022-09-30T23:14:18.395Z,12.50
2022-09-30T23:16:45.555Z,12.40
2022-09-30T23:19:12.378Z,12.30
2022-09-30T23:21:39.164Z,12.40
2022-09-30T23:24:06.656Z,12.40
2022-09-30T23:26:34.158Z,12.40
2022-09-30T23:29:05.954Z,12.40
2022-09-30T23:31:34.065Z,12.30
2022-09-30T23:34:03.383Z,12.30
2022-09-30T23:36:35.165Z,12.30
2022-09-30T23:39:19.197Z,12.30
2022-09-30T23:41:47.693Z,12.30
2022-09-30T23:44:18.691Z,12.30
2022-09-30T23:47:06.006Z,12.30
2022-09-30T23:49:35.223Z,12.30
2022-09-30T23:52:11.941Z,12.20
2022-09-30T23:54:41.908Z,12.30
2022-09-30T23:57:10.464Z,12.30
2022-09-30T23:59:38.041Z,12.30
